createdAt,value
2018-03-21T00:00:52.606Z,76.67
2018-03-21T00:01:52.622Z,76.76
2018-03-21T00:02:52.424Z,77.23
2018-03-21T00:03:52.442Z,76.95
2018-03-21T00:04:52.280Z,77.14
2018-03-21T00:05:52.288Z,77.14
2018-03-21T00:06:52.133Z,77.51
2018-03-21T00:07:52.041Z,77.99
2018-03-21T00:08:51.950Z,77.99
2018-03-21T00:09:51.992Z,77.70
2018-03-21T00:10:51.754Z,77.67
2018-03-21T00:11:52.825Z,77.86
2018-03-21T00:12:51.605Z,77.89
2018-03-21T00:13:51.574Z,77.99
2018-03-21T00:14:51.430Z,77.95
2018-03-21T00:15:52.446Z,78.05
2018-03-21T00:16:51.308Z,77.70
2018-03-21T00:17:51.294Z,78.56
2018-03-21T00:18:51.088Z,78.33
2018-03-21T00:19:51.202Z,78.27
2018-03-21T00:20:50.958Z,78.37
2018-03-21T00:21:50.951Z,78.18
2018-03-21T00:22:50.754Z,78.80
2018-03-21T00:23:50.729Z,79.03
2018-03-21T00:24:50.586Z,78.80
2018-03-21T00:25:50.577Z,79.22
2018-03-21T00:26:50.435Z,78.14
2018-03-21T00:27:50.440Z,78.90
2018-03-21T00:28:50.250Z,78.90
2018-03-21T00:29:50.251Z,79.09
2018-03-21T00:30:50.083Z,78.90
2018-03-21T00:31:50.095Z,78.71
2018-03-21T00:32:49.917Z,78.99
2018-03-21T00:33:49.868Z,79.28
2018-03-21T00:34:49.749Z,79.56
2018-03-21T00:35:49.777Z,79.66
2018-03-21T00:36:49.662Z,79.66
2018-03-21T00:37:49.583Z,79.37
2018-03-21T00:38:49.415Z,79.37
2018-03-21T00:39:49.407Z,79.66
2018-03-21T00:40:49.253Z,79.66
2018-03-21T00:41:49.250Z,79.47
2018-03-21T00:42:49.141Z,79.28
2018-03-21T00:43:49.109Z,79.28
2018-03-21T00:44:48.914Z,79.47
2018-03-21T00:45:48.928Z,79.56
2018-03-21T00:46:48.770Z,79.66
2018-03-21T00:47:48.724Z,80.04
2018-03-21T00:48:48.591Z,80.41
2018-03-21T00:49:48.540Z,80.22
2018-03-21T00:50:48.398Z,80.41
2018-03-21T00:51:48.443Z,80.41
2018-03-21T00:52:48.254Z,80.60
2018-03-21T00:53:48.267Z,80.04
2018-03-21T00:54:48.073Z,80.41
2018-03-21T00:57:30.172Z,80.41
2018-03-21T00:58:30.160Z,80.04
2018-03-21T00:59:29.985Z,80.60
2018-03-21T01:00:29.978Z,80.69
2018-03-21T01:01:29.821Z,80.51
2018-03-21T01:02:29.815Z,80.60
2018-03-21T01:03:29.652Z,80.69
2018-03-21T01:04:29.691Z,80.69
2018-03-21T01:05:29.492Z,80.79
2018-03-21T01:06:29.543Z,81.07
2018-03-21T01:07:29.332Z,81.64
2018-03-21T01:08:29.350Z,81.07
2018-03-21T01:09:29.147Z,81.64
2018-03-21T01:10:29.114Z,81.55
2018-03-21T01:11:28.984Z,81.93
2018-03-21T01:12:28.942Z,82.12
2018-03-21T01:13:28.820Z,82.12
2018-03-21T01:14:28.843Z,82.21
2018-03-21T01:15:28.639Z,82.02
2018-03-21T01:16:28.648Z,82.50
2018-03-21T01:17:28.473Z,82.59
2018-03-21T01:18:28.500Z,82.87
2018-03-21T01:19:28.324Z,82.40
2018-03-21T01:20:28.260Z,82.21
2018-03-21T01:21:28.132Z,82.40
2018-03-21T01:22:28.205Z,81.74
2018-03-21T01:23:27.998Z,82.50
2018-03-21T01:24:27.973Z,82.50
2018-03-21T01:25:27.814Z,82.68
2018-03-21T01:26:27.786Z,82.87
2018-03-21T01:27:27.631Z,82.97
2018-03-21T01:28:27.633Z,83.15
2018-03-21T01:29:27.460Z,83.15
2018-03-21T01:30:27.515Z,83.06
2018-03-21T01:31:27.290Z,83.63
2018-03-21T01:32:27.315Z,83.44
2018-03-21T01:33:27.126Z,83.63
2018-03-21T01:34:27.167Z,83.25
2018-03-21T01:35:26.957Z,83.44
2018-03-21T01:36:26.938Z,83.53
2018-03-21T01:37:26.799Z,83.44
2018-03-21T01:38:26.738Z,83.30
2018-03-21T01:39:26.717Z,83.25
2018-03-21T01:40:26.651Z,83.63
2018-03-21T01:41:26.470Z,83.40
2018-03-21T01:42:26.476Z,83.44
2018-03-21T01:43:26.291Z,83.59
2018-03-21T01:44:26.306Z,83.59
2018-03-21T01:45:26.114Z,84.10
2018-03-21T01:46:26.052Z,83.49
2018-03-21T01:47:25.956Z,83.30
2018-03-21T01:48:25.985Z,83.97
2018-03-21T01:49:25.776Z,83.97
2018-03-21T01:50:25.834Z,83.68
2018-03-21T01:51:25.609Z,83.87
2018-03-21T01:52:25.600Z,84.06
2018-03-21T01:53:25.444Z,83.97
2018-03-21T01:54:25.417Z,84.06
2018-03-21T01:55:25.297Z,84.34
2018-03-21T01:56:25.326Z,84.53
2018-03-21T01:57:25.111Z,84.06
2018-03-21T01:58:25.131Z,84.44
2018-03-21T01:59:24.943Z,84.34
2018-03-21T02:00:25.192Z,84.81
2018-03-21T02:01:24.786Z,84.63
2018-03-21T02:04:06.678Z,85.00
2018-03-21T02:05:06.638Z,85.19
2018-03-21T02:06:06.510Z,85.47
2018-03-21T02:07:06.455Z,85.28
2018-03-21T02:08:06.319Z,85.38
2018-03-21T02:09:06.356Z,85.38
2018-03-21T02:10:06.175Z,85.28
2018-03-21T02:11:06.235Z,85.38
2018-03-21T02:12:05.993Z,85.28
2018-03-21T02:13:05.988Z,85.57
2018-03-21T02:14:05.827Z,85.47
2018-03-21T02:15:05.782Z,85.00
2018-03-21T02:16:05.673Z,85.00
2018-03-21T02:17:05.701Z,85.19
2018-03-21T02:18:05.522Z,85.28
2018-03-21T02:19:05.411Z,85.19
2018-03-21T02:20:05.314Z,84.81
2018-03-21T02:21:05.310Z,85.28
2018-03-21T02:22:05.167Z,85.66
2018-03-21T02:23:05.128Z,85.66
2018-03-21T02:24:04.979Z,85.47
2018-03-21T02:25:04.945Z,85.76
2018-03-21T02:26:04.800Z,85.66
2018-03-21T02:27:04.872Z,85.66
2018-03-21T02:28:04.638Z,85.57
2018-03-21T02:29:04.652Z,84.81
2018-03-21T02:30:04.494Z,85.00
2018-03-21T02:31:04.450Z,85.19
2018-03-21T02:32:04.331Z,85.38
2018-03-21T02:33:04.271Z,85.38
2018-03-21T02:34:04.133Z,85.28
2018-03-21T02:35:04.175Z,85.38
2018-03-21T02:36:03.969Z,85.10
2018-03-21T02:37:04.030Z,85.10
2018-03-21T02:38:03.793Z,85.38
2018-03-21T02:39:03.824Z,85.28
2018-03-21T02:40:03.621Z,85.47
2018-03-21T02:41:03.610Z,85.47
2018-03-21T02:42:03.468Z,85.57
2018-03-21T02:43:03.421Z,85.66
2018-03-21T02:44:03.313Z,85.66
2018-03-21T02:45:03.321Z,85.47
2018-03-21T02:46:03.121Z,85.47
2018-03-21T02:47:03.239Z,85.47
2018-03-21T02:48:02.951Z,85.76
2018-03-21T02:49:02.962Z,85.57
2018-03-21T02:50:02.784Z,85.38
2018-03-21T02:51:02.743Z,85.19
2018-03-21T02:52:02.623Z,85.57
2018-03-21T02:53:02.581Z,85.85
2018-03-21T02:54:02.449Z,85.85
2018-03-21T02:55:02.489Z,85.66
2018-03-21T02:56:02.290Z,85.95
2018-03-21T02:57:02.281Z,86.14
2018-03-21T02:58:02.118Z,86.42
2018-03-21T02:59:02.082Z,86.33
2018-03-21T03:00:01.944Z,86.33
2018-03-21T03:01:01.889Z,86.42
2018-03-21T03:02:01.769Z,86.42
2018-03-21T03:03:01.931Z,86.14
2018-03-21T03:04:01.601Z,86.71
2018-03-21T03:05:01.656Z,86.42
2018-03-21T03:06:01.428Z,86.80
2018-03-21T03:07:01.418Z,86.42
2018-03-21T03:08:01.260Z,86.42
2018-03-21T03:09:01.225Z,86.80
2018-03-21T03:10:01.117Z,86.61
2018-03-21T03:11:01.136Z,86.61
2018-03-21T03:12:00.934Z,86.80
2018-03-21T03:13:00.863Z,86.61
2018-03-21T03:14:00.781Z,87.27
2018-03-21T03:15:00.785Z,87.27
2018-03-21T03:16:00.582Z,87.18
2018-03-21T03:17:00.573Z,87.08
2018-03-21T03:18:00.419Z,86.99
2018-03-21T03:19:00.376Z,87.37
2018-03-21T03:20:00.280Z,87.27
2018-03-21T03:21:00.285Z,87.27
2018-03-21T03:22:00.077Z,87.27
2018-03-21T03:23:00.095Z,86.99
2018-03-21T03:23:59.923Z,87.27
2018-03-21T03:24:59.934Z,87.65
2018-03-21T03:25:59.767Z,88.03
2018-03-21T03:26:59.722Z,88.03
2018-03-21T03:27:59.574Z,88.12
2018-03-21T03:28:59.621Z,87.84
2018-03-21T03:29:59.422Z,87.84
2018-03-21T03:30:59.437Z,87.93
2018-03-21T03:31:59.230Z,87.74
2018-03-21T03:32:59.258Z,88.22
2018-03-21T03:33:59.060Z,87.93
2018-03-21T03:34:59.079Z,87.74
2018-03-21T03:35:58.910Z,87.93
2018-03-21T03:36:58.917Z,88.22
2018-03-21T03:37:58.740Z,88.31
2018-03-21T03:38:58.762Z,88.41
2018-03-21T03:39:58.559Z,88.41
2018-03-21T03:40:58.604Z,89.07
2018-03-21T03:41:58.393Z,88.79
2018-03-21T03:42:58.414Z,88.79
2018-03-21T03:43:58.210Z,88.60
2018-03-21T03:44:58.190Z,88.98
2018-03-21T03:45:58.073Z,89.07
2018-03-21T03:46:58.737Z,88.69
2018-03-21T03:47:57.900Z,88.60
2018-03-21T03:48:57.909Z,88.98
2018-03-21T03:49:57.707Z,88.79
2018-03-21T03:50:57.754Z,89.17
2018-03-21T03:51:57.535Z,89.54
2018-03-21T03:52:57.532Z,89.92
2018-03-21T03:53:57.376Z,89.54
2018-03-21T03:54:57.353Z,89.36
2018-03-21T03:55:57.266Z,89.73
2018-03-21T03:56:57.299Z,89.83
2018-03-21T03:57:57.028Z,89.54
2018-03-21T03:58:57.071Z,89.83
2018-03-21T03:59:56.875Z,89.83
2018-03-21T04:00:56.905Z,89.73
2018-03-21T04:01:56.693Z,89.36
2018-03-21T04:02:56.673Z,89.64
2018-03-21T04:03:56.583Z,90.30
2018-03-21T04:04:56.480Z,90.11
2018-03-21T04:05:56.379Z,89.92
2018-03-21T04:06:56.394Z,89.92
2018-03-21T04:07:56.192Z,90.01
2018-03-21T04:08:56.195Z,89.92
2018-03-21T04:09:56.012Z,90.11
2018-03-21T04:10:56.047Z,90.01
2018-03-21T04:11:55.847Z,90.01
2018-03-21T04:12:55.815Z,90.01
2018-03-21T04:13:55.687Z,90.11
2018-03-21T04:14:55.656Z,89.83
2018-03-21T04:15:55.515Z,90.11
2018-03-21T04:16:55.576Z,89.45
2018-03-21T04:17:55.387Z,89.26
2018-03-21T04:18:55.349Z,89.54
2018-03-21T04:19:55.725Z,89.83
2018-03-21T04:20:55.153Z,89.54
2018-03-21T04:21:55.018Z,89.73
2018-03-21T04:22:54.974Z,89.54
2018-03-21T04:23:54.860Z,89.54
2018-03-21T04:24:54.871Z,89.78
2018-03-21T04:25:54.671Z,90.25
2018-03-21T04:26:54.706Z,89.87
2018-03-21T04:27:54.494Z,90.44
2018-03-21T04:28:54.476Z,90.58
2018-03-21T04:29:54.320Z,90.06
2018-03-21T04:30:54.343Z,90.44
2018-03-21T04:31:54.143Z,90.54
2018-03-21T04:32:54.104Z,90.91
2018-03-21T04:33:54.005Z,90.44
2018-03-21T04:34:54.008Z,90.63
2018-03-21T04:35:53.835Z,90.54
2018-03-21T04:36:53.922Z,90.82
2018-03-21T04:37:53.665Z,90.82
2018-03-21T04:38:53.630Z,90.82
2018-03-21T04:39:53.477Z,90.91
2018-03-21T04:40:53.433Z,90.91
2018-03-21T04:41:53.332Z,90.82
2018-03-21T04:42:53.348Z,90.25
2018-03-21T04:43:53.145Z,90.91
2018-03-21T04:44:53.156Z,91.48
2018-03-21T04:45:52.961Z,91.67
2018-03-21T04:46:52.995Z,91.58
2018-03-21T04:47:52.800Z,91.39
2018-03-21T04:48:52.768Z,91.67
2018-03-21T04:49:52.629Z,91.39
2018-03-21T04:50:52.590Z,91.39
2018-03-21T04:51:52.493Z,91.58
2018-03-21T04:52:52.513Z,91.48
2018-03-21T04:53:52.302Z,91.67
2018-03-21T04:54:52.300Z,91.72
2018-03-21T04:55:52.123Z,92.05
2018-03-21T04:56:52.152Z,92.10
2018-03-21T04:57:51.971Z,92.14
2018-03-21T04:58:51.922Z,92.05
2018-03-21T04:59:51.780Z,92.66
2018-03-21T05:00:51.728Z,92.47
2018-03-21T05:01:51.653Z,92.29
2018-03-21T05:02:51.666Z,92.10
2018-03-21T05:03:51.434Z,92.00
2018-03-21T05:04:51.445Z,93.09
2018-03-21T05:05:51.266Z,92.71
2018-03-21T05:06:51.250Z,93.28
2018-03-21T05:07:51.135Z,93.32
2018-03-21T05:08:51.075Z,93.56
2018-03-21T05:09:50.928Z,93.04
2018-03-21T05:10:50.975Z,93.09
2018-03-21T05:11:50.760Z,93.56
2018-03-21T05:12:50.779Z,93.56
2018-03-21T05:13:50.637Z,93.56
2018-03-21T05:14:50.591Z,93.75
2018-03-21T05:15:50.417Z,94.03
2018-03-21T05:16:50.404Z,93.56
2018-03-21T05:17:50.247Z,93.66
2018-03-21T05:18:50.255Z,93.94
2018-03-21T05:19:50.082Z,93.75
2018-03-21T05:20:50.115Z,93.75
2018-03-21T05:21:49.908Z,94.03
2018-03-21T05:22:49.951Z,93.94
2018-03-21T05:23:49.856Z,94.51
2018-03-21T05:26:31.673Z,95.07
2018-03-21T05:27:31.659Z,95.17
2018-03-21T05:28:31.511Z,95.45
2018-03-21T05:29:31.464Z,95.54
2018-03-21T05:30:31.337Z,95.54
2018-03-21T05:31:31.356Z,96.11
2018-03-21T05:32:31.174Z,95.92
2018-03-21T05:33:31.155Z,96.21
2018-03-21T05:34:31.010Z,96.30
2018-03-21T05:35:31.006Z,96.40
2018-03-21T05:36:30.823Z,96.11
2018-03-21T05:37:30.778Z,96.68
2018-03-21T05:38:30.675Z,96.87
2018-03-21T05:39:30.680Z,96.68
2018-03-21T05:40:30.486Z,97.06
2018-03-21T05:41:30.489Z,96.78
2018-03-21T05:42:30.315Z,97.44
2018-03-21T05:43:30.332Z,97.44
2018-03-21T05:44:30.383Z,97.63
2018-03-21T05:45:30.108Z,97.44
2018-03-21T05:46:30.011Z,97.44
2018-03-21T05:47:30.069Z,97.63
2018-03-21T05:48:29.832Z,97.44
2018-03-21T05:51:11.678Z,97.63
2018-03-21T05:52:11.729Z,97.25
2018-03-21T05:53:11.507Z,97.06
2018-03-21T05:54:11.568Z,97.34
2018-03-21T05:55:11.336Z,97.15
2018-03-21T05:56:11.342Z,97.34
2018-03-21T05:57:11.174Z,97.91
2018-03-21T05:58:11.151Z,98.00
2018-03-21T05:59:11.012Z,98.10
2018-03-21T06:00:10.992Z,98.66
2018-03-21T06:01:10.832Z,98.85
2018-03-21T06:02:10.869Z,99.42
2018-03-21T06:03:10.652Z,99.14
2018-03-21T06:04:10.680Z,99.33
2018-03-21T06:05:10.581Z,99.85
2018-03-21T06:06:10.480Z,99.99
2018-03-21T06:07:10.332Z,99.95
2018-03-21T06:08:10.402Z,99.38
2018-03-21T06:09:10.147Z,99.28
2018-03-21T06:10:10.129Z,98.90
2018-03-21T06:11:09.982Z,98.67
2018-03-21T06:12:10.009Z,97.96
2018-03-21T06:13:09.828Z,96.92
2018-03-21T06:14:09.826Z,97.20
2018-03-21T06:15:09.655Z,96.64
2018-03-21T06:16:09.673Z,97.11
2018-03-21T06:17:09.471Z,97.30
2018-03-21T06:18:09.443Z,97.67
2018-03-21T06:19:09.310Z,98.05
2018-03-21T06:20:09.285Z,97.96
2018-03-21T06:21:09.139Z,97.86
2018-03-21T06:22:09.150Z,97.86
2018-03-21T06:23:08.967Z,98.62
2018-03-21T06:24:08.961Z,98.76
2018-03-21T06:25:08.858Z,98.47
2018-03-21T06:26:08.766Z,99.00
2018-03-21T06:27:08.617Z,99.28
2018-03-21T06:28:08.585Z,99.99
2018-03-21T06:29:08.450Z,99.99
2018-03-21T06:30:08.492Z,99.99
2018-03-21T06:31:08.337Z,99.99
2018-03-21T06:32:08.302Z,99.99
2018-03-21T06:33:08.128Z,98.58
2018-03-21T06:34:08.107Z,97.91
2018-03-21T06:35:07.973Z,97.53
2018-03-21T06:36:07.951Z,96.97
2018-03-21T06:37:07.784Z,96.69
2018-03-21T06:38:07.823Z,98.29
2018-03-21T06:39:07.613Z,97.25
2018-03-21T06:40:07.638Z,97.30
2018-03-21T06:41:07.451Z,97.11
2018-03-21T06:42:07.475Z,97.86
2018-03-21T06:43:07.281Z,99.28
2018-03-21T06:44:07.246Z,98.71
2018-03-21T06:45:07.100Z,99.00
2018-03-21T06:46:07.105Z,98.52
2018-03-21T06:47:06.966Z,99.52
2018-03-21T06:48:06.964Z,99.33
2018-03-21T06:49:06.763Z,99.33
2018-03-21T06:50:06.780Z,98.86
2018-03-21T06:51:06.616Z,98.52
2018-03-21T06:52:06.626Z,98.62
2018-03-21T06:53:06.431Z,99.00
2018-03-21T06:54:06.398Z,99.00
2018-03-21T06:55:06.319Z,99.09
2018-03-21T06:56:06.303Z,99.47
2018-03-21T06:57:06.094Z,99.85
2018-03-21T06:58:06.151Z,99.99
2018-03-21T06:59:05.938Z,99.99
2018-03-21T07:00:05.940Z,99.99
2018-03-21T07:01:05.762Z,99.99
2018-03-21T07:02:05.729Z,99.99
2018-03-21T07:03:05.636Z,99.99
2018-03-21T07:04:05.653Z,99.99
2018-03-21T07:05:05.431Z,99.99
2018-03-21T07:06:05.459Z,99.99
2018-03-21T07:07:05.259Z,99.99
2018-03-21T07:08:05.289Z,99.99
2018-03-21T07:09:05.147Z,99.95
2018-03-21T07:10:05.066Z,99.99
2018-03-21T07:11:04.917Z,99.99
2018-03-21T07:12:04.878Z,99.57
2018-03-21T07:13:04.771Z,99.57
2018-03-21T07:14:04.788Z,99.99
2018-03-21T07:15:04.619Z,99.99
2018-03-21T07:16:04.592Z,99.99
2018-03-21T07:17:04.408Z,99.99
2018-03-21T07:18:04.428Z,99.99
2018-03-21T07:19:04.264Z,99.99
2018-03-21T07:20:04.253Z,99.99
2018-03-21T07:21:04.082Z,99.99
2018-03-21T07:22:04.128Z,99.99
2018-03-21T07:23:03.940Z,99.99
2018-03-21T07:24:03.984Z,99.99
2018-03-21T07:25:03.755Z,99.99
2018-03-21T07:26:03.740Z,99.99
2018-03-21T07:27:03.575Z,99.99
2018-03-21T07:28:03.654Z,99.99
2018-03-21T07:29:03.431Z,99.90
2018-03-21T07:30:03.359Z,99.28
2018-03-21T07:31:03.319Z,99.28
2018-03-21T07:32:03.281Z,99.95
2018-03-21T07:33:03.058Z,99.99
2018-03-21T07:34:03.108Z,99.99
2018-03-21T07:35:02.893Z,99.99
2018-03-21T07:36:02.886Z,99.99
2018-03-21T07:37:02.736Z,99.99
2018-03-21T07:38:02.699Z,99.99
2018-03-21T07:39:02.620Z,99.99
2018-03-21T07:40:02.600Z,99.99
2018-03-21T07:41:02.415Z,99.99
2018-03-21T07:42:02.414Z,99.99
2018-03-21T07:43:02.226Z,99.99
2018-03-21T07:44:02.250Z,99.99
2018-03-21T07:45:02.161Z,99.99
2018-03-21T07:46:02.022Z,99.99
2018-03-21T07:47:01.896Z,99.99
2018-03-21T07:48:01.944Z,99.99
2018-03-21T07:49:01.732Z,99.99
2018-03-21T07:50:02.493Z,99.99
2018-03-21T07:51:01.551Z,99.99
2018-03-21T07:52:01.567Z,99.99
2018-03-21T07:53:01.385Z,99.99
2018-03-21T07:54:01.370Z,99.99
2018-03-21T07:55:01.238Z,99.99
2018-03-21T07:56:01.181Z,99.99
2018-03-21T07:57:01.048Z,99.99
2018-03-21T07:58:01.084Z,99.99
2018-03-21T07:59:00.881Z,99.99
2018-03-21T08:00:00.920Z,99.99
2018-03-21T08:01:00.727Z,99.99
2018-03-21T08:02:00.684Z,99.99
2018-03-21T08:03:00.545Z,99.99
2018-03-21T08:04:00.506Z,99.99
2018-03-21T08:05:00.374Z,99.99
2018-03-21T08:06:00.337Z,99.99
2018-03-21T08:07:00.264Z,99.99
2018-03-21T08:08:00.150Z,99.99
2018-03-21T08:09:00.054Z,99.99
2018-03-21T08:09:59.975Z,99.99
2018-03-21T08:10:59.889Z,99.99
2018-03-21T08:11:59.844Z,99.99
2018-03-21T08:12:59.727Z,99.99
2018-03-21T08:13:59.649Z,99.99
2018-03-21T08:14:59.594Z,99.99
2018-03-21T08:15:59.621Z,99.99
2018-03-21T08:16:59.374Z,99.99
2018-03-21T08:17:59.426Z,99.99
2018-03-21T08:18:59.206Z,99.99
2018-03-21T08:19:59.174Z,99.99
2018-03-21T08:20:59.035Z,99.99
2018-03-21T08:21:58.984Z,99.99
2018-03-21T08:22:58.878Z,99.99
2018-03-21T08:23:58.943Z,99.99
2018-03-21T08:24:58.883Z,99.99
2018-03-21T08:25:58.739Z,99.99
2018-03-21T08:27:00.213Z,99.99
2018-03-21T08:27:58.566Z,99.99
2018-03-21T08:28:58.388Z,99.99
2018-03-21T08:29:58.312Z,99.99
2018-03-21T08:30:58.230Z,99.99
2018-03-21T08:31:58.233Z,99.99
2018-03-21T08:32:58.041Z,99.99
2018-03-21T08:33:58.102Z,99.99
2018-03-21T08:34:57.925Z,99.99
2018-03-21T08:35:57.884Z,99.99
2018-03-21T08:36:57.713Z,99.99
2018-03-21T08:37:57.751Z,99.99
2018-03-21T08:38:57.559Z,99.99
2018-03-21T08:39:57.568Z,99.99
2018-03-21T08:40:57.523Z,99.99
2018-03-21T08:41:57.391Z,99.66
2018-03-21T08:42:57.220Z,99.99
2018-03-21T08:43:57.239Z,99.57
2018-03-21T08:44:57.045Z,99.99
2018-03-21T08:45:57.000Z,99.99
2018-03-21T08:46:56.895Z,99.99
2018-03-21T08:47:56.802Z,99.33
2018-03-21T08:48:56.701Z,99.05
2018-03-21T08:49:56.633Z,99.01
2018-03-21T08:50:56.555Z,98.63
2018-03-21T08:51:56.604Z,97.59
2018-03-21T08:52:56.381Z,97.78
2018-03-21T08:53:56.330Z,96.45
2018-03-21T08:54:56.210Z,97.35
2018-03-21T08:55:56.137Z,95.69
2018-03-21T08:56:56.173Z,94.70
2018-03-21T08:57:56.084Z,94.65
2018-03-21T08:58:55.868Z,94.08
2018-03-21T08:59:55.803Z,94.74
2018-03-21T09:00:55.718Z,95.12
2018-03-21T09:01:55.699Z,94.84
2018-03-21T09:02:55.542Z,94.18
2018-03-21T09:03:55.589Z,93.61
2018-03-21T09:04:55.380Z,95.79
2018-03-21T09:05:55.387Z,95.69
2018-03-21T09:06:55.233Z,95.50
2018-03-21T09:07:55.189Z,95.41
2018-03-21T09:08:55.044Z,94.74
2018-03-21T09:09:55.044Z,96.64
2018-03-21T09:10:54.891Z,95.79
2018-03-21T09:11:55.885Z,94.37
2018-03-21T09:12:54.712Z,95.31
2018-03-21T09:13:54.770Z,95.60
2018-03-21T09:14:54.550Z,94.27
2018-03-21T09:15:54.479Z,95.84
2018-03-21T09:16:54.425Z,93.70
2018-03-21T09:17:54.330Z,93.51
2018-03-21T09:18:54.220Z,93.51
2018-03-21T09:19:54.156Z,93.89
2018-03-21T09:20:54.061Z,95.12
2018-03-21T09:21:53.995Z,95.79
2018-03-21T09:22:53.906Z,94.27
2018-03-21T09:23:53.840Z,94.93
2018-03-21T09:24:53.735Z,94.37
2018-03-21T09:25:53.664Z,93.23
2018-03-21T09:26:53.574Z,94.51
2018-03-21T09:27:53.485Z,94.79
2018-03-21T09:28:53.414Z,93.84
2018-03-21T09:29:53.337Z,93.08
2018-03-21T09:30:53.234Z,92.52
2018-03-21T09:31:53.171Z,92.33
2018-03-21T09:32:53.073Z,92.99
2018-03-21T09:33:53.062Z,92.90
2018-03-21T09:34:52.906Z,93.32
2018-03-21T09:35:52.838Z,93.84
2018-03-21T09:36:52.832Z,93.37
2018-03-21T09:37:52.683Z,93.18
2018-03-21T09:38:52.578Z,91.95
2018-03-21T09:39:52.528Z,92.28
2018-03-21T09:40:52.412Z,92.09
2018-03-21T09:41:52.341Z,93.80
2018-03-21T09:42:52.249Z,94.89
2018-03-21T09:43:52.201Z,93.94
2018-03-21T09:44:52.102Z,93.56
2018-03-21T09:45:52.015Z,93.27
2018-03-21T09:46:51.920Z,92.99
2018-03-21T09:47:51.858Z,93.08
2018-03-21T09:48:51.749Z,92.90
2018-03-21T09:49:51.789Z,91.85
2018-03-21T09:50:51.592Z,92.33
2018-03-21T09:51:51.515Z,92.14
2018-03-21T09:52:51.421Z,91.95
2018-03-21T09:53:51.358Z,92.33
2018-03-21T09:54:51.289Z,92.52
2018-03-21T09:55:51.215Z,91.85
2018-03-21T09:56:51.102Z,92.90
2018-03-21T09:57:51.040Z,92.80
2018-03-21T09:58:50.952Z,91.62
2018-03-21T09:59:50.864Z,91.81
2018-03-21T10:00:50.766Z,91.90
2018-03-21T10:01:50.691Z,93.27
2018-03-21T10:02:50.605Z,91.85
2018-03-21T10:03:50.533Z,92.04
2018-03-21T10:04:50.460Z,92.52
2018-03-21T10:05:50.389Z,92.52
2018-03-21T10:06:50.288Z,93.04
2018-03-21T10:07:50.208Z,93.23
2018-03-21T10:08:50.107Z,93.75
2018-03-21T10:09:50.148Z,93.23
2018-03-21T10:10:49.977Z,93.61
2018-03-21T10:11:49.899Z,94.18
2018-03-21T10:12:49.778Z,93.56
2018-03-21T10:13:49.701Z,93.75
2018-03-21T10:14:49.614Z,92.71
2018-03-21T10:15:49.580Z,92.14
2018-03-21T10:16:49.462Z,91.66
2018-03-21T10:17:49.380Z,91.66
2018-03-21T10:18:49.297Z,91.95
2018-03-21T10:19:49.253Z,92.71
2018-03-21T10:20:49.138Z,92.33
2018-03-21T10:21:49.052Z,92.14
2018-03-21T10:22:48.953Z,93.27
2018-03-21T10:23:48.895Z,93.27
2018-03-21T10:24:48.800Z,92.61
2018-03-21T10:25:48.737Z,93.27
2018-03-21T10:26:48.677Z,91.05
2018-03-21T10:27:48.564Z,90.76
2018-03-21T10:28:48.480Z,89.86
2018-03-21T10:29:48.425Z,90.57
2018-03-21T10:30:48.312Z,89.86
2018-03-21T10:31:48.232Z,89.77
2018-03-21T10:32:48.142Z,90.05
2018-03-21T10:33:48.070Z,90.91
2018-03-21T10:34:48.012Z,91.76
2018-03-21T10:35:47.903Z,90.62
2018-03-21T10:36:47.811Z,90.43
2018-03-21T10:37:47.763Z,90.72
2018-03-21T10:38:47.658Z,91.19
2018-03-21T10:39:47.583Z,91.85
2018-03-21T10:40:47.513Z,90.43
2018-03-21T10:41:47.426Z,89.91
2018-03-21T10:42:47.462Z,89.77
2018-03-21T10:43:47.247Z,90.05
2018-03-21T10:44:47.159Z,90.72
2018-03-21T10:45:47.102Z,91.47
2018-03-21T10:46:47.010Z,91.00
2018-03-21T10:47:46.928Z,90.10
2018-03-21T10:48:46.832Z,89.06
2018-03-21T10:49:46.758Z,89.25
2018-03-21T10:50:46.664Z,88.68
2018-03-21T10:51:46.611Z,89.53
2018-03-21T10:52:46.512Z,87.45
2018-03-21T10:53:46.434Z,87.35
2018-03-21T10:54:46.359Z,89.06
2018-03-21T10:55:46.262Z,89.25
2018-03-21T10:56:46.203Z,90.00
2018-03-21T10:57:46.122Z,89.34
2018-03-21T10:58:46.013Z,89.25
2018-03-21T10:59:45.950Z,89.06
2018-03-21T11:00:45.846Z,89.20
2018-03-21T11:01:45.796Z,88.43
2018-03-21T11:02:45.862Z,88.29
2018-03-21T11:03:45.620Z,88.39
2018-03-21T11:04:45.513Z,88.20
2018-03-21T11:05:45.485Z,89.15
2018-03-21T11:06:45.346Z,89.81
2018-03-21T11:07:45.288Z,90.00
2018-03-21T11:08:45.209Z,89.20
2018-03-21T11:09:45.126Z,89.20
2018-03-21T11:10:45.036Z,87.87
2018-03-21T11:11:44.961Z,86.91
2018-03-21T11:12:44.940Z,87.35
2018-03-21T11:13:44.787Z,87.82
2018-03-21T11:14:44.707Z,87.92
2018-03-21T11:15:44.659Z,89.06
2018-03-21T11:16:44.530Z,88.96
2018-03-21T11:17:44.502Z,89.25
2018-03-21T11:18:44.383Z,89.81
2018-03-21T11:19:44.296Z,90.00
2018-03-21T11:20:44.232Z,90.19
2018-03-21T11:21:44.128Z,89.81
2018-03-21T11:22:44.049Z,90.00
2018-03-21T11:23:44.020Z,89.96
2018-03-21T11:24:43.886Z,89.67
2018-03-21T11:25:43.826Z,90.15
2018-03-21T11:26:43.720Z,90.91
2018-03-21T11:27:43.696Z,90.34
2018-03-21T11:28:43.556Z,90.05
2018-03-21T11:29:43.478Z,89.72
2018-03-21T11:30:43.394Z,88.58
2018-03-21T11:31:43.326Z,87.63
2018-03-21T11:32:43.283Z,87.30
2018-03-21T11:33:43.184Z,86.54
2018-03-21T11:34:43.064Z,85.97
2018-03-21T11:35:43.117Z,87.11
2018-03-21T11:36:42.901Z,86.16
2018-03-21T11:37:42.844Z,86.44
2018-03-21T11:38:42.733Z,86.44
2018-03-21T11:39:42.701Z,85.40
2018-03-21T11:40:42.588Z,85.53
2018-03-21T11:41:42.519Z,84.97
2018-03-21T11:42:42.409Z,84.11
2018-03-21T11:43:42.386Z,83.83
2018-03-21T11:44:42.259Z,84.59
2018-03-21T11:45:42.182Z,84.40
2018-03-21T11:46:42.105Z,84.11
2018-03-21T11:47:42.024Z,84.64
2018-03-21T11:48:41.941Z,85.35
2018-03-21T11:49:41.870Z,84.78
2018-03-21T11:50:41.756Z,83.83
2018-03-21T11:51:41.717Z,83.16
2018-03-21T11:52:41.601Z,82.97
2018-03-21T11:53:41.544Z,82.97
2018-03-21T11:54:42.009Z,83.01
2018-03-21T11:55:41.373Z,82.39
2018-03-21T11:56:41.300Z,80.82
2018-03-21T11:57:41.205Z,78.16
2018-03-21T11:58:41.127Z,77.01
2018-03-21T11:59:41.050Z,76.92
2018-03-21T12:00:41.015Z,76.69
2018-03-21T12:01:40.880Z,77.55
2018-03-21T12:02:40.793Z,77.45
2018-03-21T12:03:40.751Z,78.27
2018-03-21T12:04:40.639Z,79.12
2018-03-21T12:05:40.636Z,79.41
2018-03-21T12:06:40.497Z,78.80
2018-03-21T12:07:40.436Z,79.84
2018-03-21T12:08:41.313Z,80.55
2018-03-21T12:09:40.257Z,79.94
2018-03-21T12:10:40.174Z,79.84
2018-03-21T12:11:40.213Z,81.02
2018-03-21T12:12:40.005Z,79.88
2018-03-21T12:13:39.918Z,79.50
2018-03-21T12:14:39.893Z,80.45
2018-03-21T12:15:39.789Z,80.79
2018-03-21T12:16:39.726Z,80.41
2018-03-21T12:17:39.654Z,80.88
2018-03-21T12:18:39.531Z,81.17
2018-03-21T12:19:39.445Z,80.94
2018-03-21T12:20:39.364Z,82.40
2018-03-21T12:21:39.309Z,81.55
2018-03-21T12:22:39.208Z,81.45
2018-03-21T12:23:39.145Z,79.55
2018-03-21T12:24:39.065Z,81.12
2018-03-21T12:25:38.956Z,79.83
2018-03-21T12:26:38.904Z,77.55
2018-03-21T12:27:38.825Z,76.78
2018-03-21T12:28:38.718Z,75.64
2018-03-21T12:29:38.632Z,76.03
2018-03-21T12:30:38.614Z,74.69
2018-03-21T12:31:39.303Z,75.17
2018-03-21T12:32:38.412Z,74.51
2018-03-21T12:33:38.310Z,75.17
2018-03-21T12:34:38.246Z,75.74
2018-03-21T12:35:38.156Z,75.64
2018-03-21T12:36:38.119Z,74.94
2018-03-21T12:37:38.008Z,76.18
2018-03-21T12:38:39.941Z,75.74
2018-03-21T12:39:37.828Z,75.07
2018-03-21T12:40:37.828Z,75.13
2018-03-21T12:41:37.690Z,76.18
2018-03-21T12:42:37.617Z,77.22
2018-03-21T12:43:37.515Z,75.89
2018-03-21T12:44:37.558Z,75.13
2018-03-21T12:45:37.373Z,75.23
2018-03-21T12:46:37.384Z,75.04
2018-03-21T12:47:37.204Z,75.79
2018-03-21T12:48:37.151Z,75.32
2018-03-21T12:49:37.030Z,75.04
2018-03-21T12:50:37.002Z,75.70
2018-03-21T12:51:36.859Z,76.27
2018-03-21T12:52:36.851Z,75.99
2018-03-21T12:53:36.736Z,76.18
2018-03-21T12:54:36.729Z,76.27
2018-03-21T12:55:36.594Z,76.84
2018-03-21T12:56:36.534Z,76.65
2018-03-21T12:57:36.394Z,76.84
2018-03-21T12:58:36.376Z,77.03